sensor_id;sensor_type;location;lat;lon;timestamp;P1;durP1;ratioP1;P2;durP2;ratioP2
50213;SDS011;36103;54.176;12.070;2023-04-24T00:00:31;5.43;;;3.50;;
50213;SDS011;36103;54.176;12.070;2023-04-24T00:01:34;5.37;;;3.30;;
50213;SDS011;36103;54.176;12.070;2023-04-24T00:02:36;4.20;;;3.30;;
50213;SDS011;36103;54.176;12.070;2023-04-24T00:03:38;4.50;;;3.10;;
50213;SDS011;36103;54.176;12.070;2023-04-24T00:04:39;4.23;;;3.13;;
50213;SDS011;36103;54.176;12.070;2023-04-24T00:05:44;5.33;;;3.50;;
50213;SDS011;36103;54.176;12.070;2023-04-24T00:06:45;4.07;;;3.00;;
50213;SDS011;36103;54.176;12.070;2023-04-24T00:07:49;5.10;;;3.20;;
50213;SDS011;36103;54.176;12.070;2023-04-24T00:08:52;4.73;;;3.50;;
50213;SDS011;36103;54.176;12.070;2023-04-24T00:09:54;4.30;;;2.67;;
50213;SDS011;36103;54.176;12.070;2023-04-24T00:10:54;5.50;;;3.57;;
50213;SDS011;36103;54.176;12.070;2023-04-24T00:11:56;6.60;;;3.23;;
50213;SDS011;36103;54.176;12.070;2023-04-24T00:12:56;4.63;;;3.33;;
50213;SDS011;36103;54.176;12.070;2023-04-24T00:13:58;5.07;;;3.10;;
50213;SDS011;36103;54.176;12.070;2023-04-24T00:14:58;4.50;;;3.23;;
50213;SDS011;36103;54.176;12.070;2023-04-24T00:16:00;4.53;;;2.83;;
50213;SDS011;36103;54.176;12.070;2023-04-24T00:17:02;3.97;;;2.93;;
50213;SDS011;36103;54.176;12.070;2023-04-24T00:18:04;4.17;;;2.77;;
50213;SDS011;36103;54.176;12.070;2023-04-24T00:19:04;4.07;;;3.00;;
50213;SDS011;36103;54.176;12.070;2023-04-24T00:20:07;4.83;;;3.10;;
50213;SDS011;36103;54.176;12.070;2023-04-24T00:21:08;6.30;;;3.23;;
50213;SDS011;36103;54.176;12.070;2023-04-24T00:22:09;5.00;;;2.97;;
50213;SDS011;36103;54.176;12.070;2023-04-24T00:23:10;4.93;;;2.80;;
50213;SDS011;36103;54.176;12.070;2023-04-24T00:24:12;3.97;;;2.97;;
50213;SDS011;36103;54.176;12.070;2023-04-24T00:25:12;4.93;;;2.90;;
50213;SDS011;36103;54.176;12.070;2023-04-24T00:26:14;3.53;;;2.70;;
50213;SDS011;36103;54.176;12.070;2023-04-24T00:27:15;5.40;;;3.13;;
50213;SDS011;36103;54.176;12.070;2023-04-24T00:28:16;4.40;;;3.20;;
50213;SDS011;36103;54.176;12.070;2023-04-24T00:29:16;4.17;;;2.90;;
50213;SDS011;36103;54.176;12.070;2023-04-24T00:30:18;3.53;;;2.83;;
50213;SDS011;36103;54.176;12.070;2023-04-24T00:31:19;5.70;;;2.83;;
50213;SDS011;36103;54.176;12.070;2023-04-24T00:32:22;4.40;;;2.90;;
50213;SDS011;36103;54.176;12.070;2023-04-24T00:33:22;4.00;;;2.80;;
50213;SDS011;36103;54.176;12.070;2023-04-24T00:34:24;3.97;;;2.97;;
50213;SDS011;36103;54.176;12.070;2023-04-24T00:35:25;6.13;;;3.23;;
50213;SDS011;36103;54.176;12.070;2023-04-24T00:36:26;5.17;;;3.20;;
50213;SDS011;36103;54.176;12.070;2023-04-24T00:37:27;3.33;;;2.77;;
50213;SDS011;36103;54.176;12.070;2023-04-24T00:38:28;3.43;;;2.67;;
50213;SDS011;36103;54.176;12.070;2023-04-24T00:39:30;3.90;;;2.57;;
50213;SDS011;36103;54.176;12.070;2023-04-24T00:40:30;6.33;;;3.33;;
50213;SDS011;36103;54.176;12.070;2023-04-24T00:41:32;4.53;;;2.90;;
50213;SDS011;36103;54.176;12.070;2023-04-24T00:42:32;4.70;;;2.90;;
50213;SDS011;36103;54.176;12.070;2023-04-24T00:43:34;4.03;;;2.40;;
50213;SDS011;36103;54.176;12.070;2023-04-24T00:44:34;3.97;;;2.53;;
50213;SDS011;36103;54.176;12.070;2023-04-24T00:45:36;3.83;;;2.70;;
50213;SDS011;36103;54.176;12.070;2023-04-24T00:46:37;3.67;;;2.80;;
50213;SDS011;36103;54.176;12.070;2023-04-24T00:47:40;3.93;;;2.90;;
50213;SDS011;36103;54.176;12.070;2023-04-24T00:48:42;4.27;;;2.97;;
50213;SDS011;36103;54.176;12.070;2023-04-24T00:49:44;3.47;;;2.60;;
50213;SDS011;36103;54.176;12.070;2023-04-24T00:50:44;2.80;;;2.50;;
50213;SDS011;36103;54.176;12.070;2023-04-24T00:51:48;3.30;;;2.67;;
50213;SDS011;36103;54.176;12.070;2023-04-24T00:52:49;4.00;;;2.73;;
50213;SDS011;36103;54.176;12.070;2023-04-24T00:53:51;4.03;;;2.63;;
50213;SDS011;36103;54.176;12.070;2023-04-24T00:54:52;3.77;;;2.70;;
50213;SDS011;36103;54.176;12.070;2023-04-24T00:55:53;3.70;;;2.57;;
50213;SDS011;36103;54.176;12.070;2023-04-24T00:56:54;3.73;;;2.40;;
50213;SDS011;36103;54.176;12.070;2023-04-24T00:57:57;3.80;;;2.70;;
50213;SDS011;36103;54.176;12.070;2023-04-24T00:58:57;4.90;;;2.90;;
50213;SDS011;36103;54.176;12.070;2023-04-24T00:59:59;4.00;;;2.70;;
50213;SDS011;36103;54.176;12.070;2023-04-24T01:00:59;4.73;;;2.77;;
50213;SDS011;36103;54.176;12.070;2023-04-24T01:02:03;3.23;;;2.57;;
50213;SDS011;36103;54.176;12.070;2023-04-24T01:04:07;3.23;;;2.33;;
50213;SDS011;36103;54.176;12.070;2023-04-24T01:05:10;5.40;;;2.50;;
50213;SDS011;36103;54.176;12.070;2023-04-24T01:06:12;3.20;;;2.50;;
50213;SDS011;36103;54.176;12.070;2023-04-24T01:07:13;4.50;;;2.60;;
50213;SDS011;36103;54.176;12.070;2023-04-24T01:08:14;3.33;;;2.50;;
50213;SDS011;36103;54.176;12.070;2023-04-24T01:09:15;4.27;;;2.67;;
50213;SDS011;36103;54.176;12.070;2023-04-24T01:10:17;3.93;;;2.67;;
50213;SDS011;36103;54.176;12.070;2023-04-24T01:11:20;3.60;;;2.50;;
50213;SDS011;36103;54.176;12.070;2023-04-24T01:12:22;4.47;;;2.73;;
50213;SDS011;36103;54.176;12.070;2023-04-24T01:13:22;3.43;;;2.53;;
50213;SDS011;36103;54.176;12.070;2023-04-24T01:14:24;3.90;;;2.73;;
50213;SDS011;36103;54.176;12.070;2023-04-24T01:15:24;4.60;;;2.50;;
50213;SDS011;36103;54.176;12.070;2023-04-24T01:16:26;3.30;;;2.60;;
50213;SDS011;36103;54.176;12.070;2023-04-24T01:17:27;2.93;;;2.60;;
50213;SDS011;36103;54.176;12.070;2023-04-24T01:18:31;4.90;;;2.57;;
50213;SDS011;36103;54.176;12.070;2023-04-24T01:19:32;4.00;;;2.77;;
50213;SDS011;36103;54.176;12.070;2023-04-24T01:20:33;3.03;;;2.23;;
50213;SDS011;36103;54.176;12.070;2023-04-24T01:21:37;5.23;;;2.50;;
50213;SDS011;36103;54.176;12.070;2023-04-24T01:22:41;3.53;;;2.93;;
50213;SDS011;36103;54.176;12.070;2023-04-24T01:23:43;3.60;;;2.20;;
50213;SDS011;36103;54.176;12.070;2023-04-24T01:24:44;3.67;;;2.60;;
50213;SDS011;36103;54.176;12.070;2023-04-24T01:25:46;4.53;;;2.43;;
50213;SDS011;36103;54.176;12.070;2023-04-24T01:26:46;3.63;;;2.37;;
50213;SDS011;36103;54.176;12.070;2023-04-24T01:27:48;2.90;;;2.40;;
50213;SDS011;36103;54.176;12.070;2023-04-24T01:28:48;3.10;;;2.17;;
50213;SDS011;36103;54.176;12.070;2023-04-24T01:29:53;3.17;;;2.20;;
50213;SDS011;36103;54.176;12.070;2023-04-24T01:30:53;3.20;;;2.47;;
50213;SDS011;36103;54.176;12.070;2023-04-24T01:31:57;2.60;;;2.40;;
50213;SDS011;36103;54.176;12.070;2023-04-24T01:32:58;3.67;;;2.30;;
50213;SDS011;36103;54.176;12.070;2023-04-24T01:34:00;3.03;;;2.43;;
50213;SDS011;36103;54.176;12.070;2023-04-24T01:35:01;3.63;;;2.27;;
50213;SDS011;36103;54.176;12.070;2023-04-24T01:36:03;3.17;;;2.87;;
50213;SDS011;36103;54.176;12.070;2023-04-24T01:37:04;3.63;;;2.47;;
50213;SDS011;36103;54.176;12.070;2023-04-24T01:38:07;2.97;;;2.30;;
50213;SDS011;36103;54.176;12.070;2023-04-24T01:39:09;3.73;;;2.37;;
50213;SDS011;36103;54.176;12.070;2023-04-24T01:40:10;2.57;;;2.27;;
50213;SDS011;36103;54.176;12.070;2023-04-24T01:41:11;3.37;;;2.37;;
50213;SDS011;36103;54.176;12.070;2023-04-24T01:42:12;3.60;;;2.60;;
50213;SDS011;36103;54.176;12.070;2023-04-24T01:43:13;3.13;;;2.30;;
50213;SDS011;36103;54.176;12.070;2023-04-24T01:44:14;2.60;;;2.20;;
50213;SDS011;36103;54.176;12.070;2023-04-24T01:45:15;2.93;;;2.40;;
50213;SDS011;36103;54.176;12.070;2023-04-24T01:46:17;3.43;;;2.60;;
50213;SDS011;36103;54.176;12.070;2023-04-24T01:47:18;3.47;;;2.67;;
50213;SDS011;36103;54.176;12.070;2023-04-24T01:48:19;2.90;;;2.33;;
50213;SDS011;36103;54.176;12.070;2023-04-24T01:49:20;2.93;;;2.60;;
50213;SDS011;36103;54.176;12.070;2023-04-24T01:50:21;3.13;;;2.07;;
50213;SDS011;36103;54.176;12.070;2023-04-24T01:51:22;3.37;;;2.53;;
50213;SDS011;36103;54.176;12.070;2023-04-24T01:52:23;3.07;;;2.63;;
50213;SDS011;36103;54.176;12.070;2023-04-24T01:53:26;2.93;;;2.40;;
50213;SDS011;36103;54.176;12.070;2023-04-24T01:54:27;3.53;;;2.40;;
50213;SDS011;36103;54.176;12.070;2023-04-24T01:55:29;2.90;;;2.20;;
50213;SDS011;36103;54.176;12.070;2023-04-24T01:56:31;3.03;;;2.13;;
50213;SDS011;36103;54.176;12.070;2023-04-24T01:57:33;2.87;;;2.40;;
50213;SDS011;36103;54.176;12.070;2023-04-24T01:58:35;2.40;;;2.20;;
50213;SDS011;36103;54.176;12.070;2023-04-24T01:59:36;4.73;;;2.67;;
50213;SDS011;36103;54.176;12.070;2023-04-24T02:00:37;3.03;;;2.27;;
50213;SDS011;36103;54.176;12.070;2023-04-24T02:01:38;4.03;;;2.17;;
50213;SDS011;36103;54.176;12.070;2023-04-24T02:02:40;3.00;;;2.40;;
50213;SDS011;36103;54.176;12.070;2023-04-24T02:03:41;3.33;;;2.10;;
50213;SDS011;36103;54.176;12.070;2023-04-24T02:04:42;2.87;;;2.20;;
50213;SDS011;36103;54.176;12.070;2023-04-24T02:05:43;2.97;;;2.33;;
50213;SDS011;36103;54.176;12.070;2023-04-24T02:06:44;3.37;;;2.70;;
50213;SDS011;36103;54.176;12.070;2023-04-24T02:07:45;4.40;;;2.53;;
50213;SDS011;36103;54.176;12.070;2023-04-24T02:08:48;3.10;;;2.00;;
50213;SDS011;36103;54.176;12.070;2023-04-24T02:09:49;4.50;;;2.30;;
50213;SDS011;36103;54.176;12.070;2023-04-24T02:10:50;3.07;;;2.27;;
50213;SDS011;36103;54.176;12.070;2023-04-24T02:11:51;3.17;;;2.50;;
50213;SDS011;36103;54.176;12.070;2023-04-24T02:12:52;2.80;;;2.10;;
50213;SDS011;36103;54.176;12.070;2023-04-24T02:13:53;3.20;;;2.50;;
50213;SDS011;36103;54.176;12.070;2023-04-24T02:14:55;3.10;;;2.37;;
50213;SDS011;36103;54.176;12.070;2023-04-24T02:15:55;2.73;;;2.00;;
50213;SDS011;36103;54.176;12.070;2023-04-24T02:16:57;2.20;;;2.00;;
50213;SDS011;36103;54.176;12.070;2023-04-24T02:17:57;2.80;;;2.10;;
50213;SDS011;36103;54.176;12.070;2023-04-24T02:18:59;3.23;;;2.27;;
50213;SDS011;36103;54.176;12.070;2023-04-24T02:20:00;2.33;;;1.90;;
50213;SDS011;36103;54.176;12.070;2023-04-24T02:21:01;2.17;;;1.97;;
50213;SDS011;36103;54.176;12.070;2023-04-24T02:22:02;2.97;;;2.27;;
50213;SDS011;36103;54.176;12.070;2023-04-24T02:23:03;3.30;;;2.03;;
50213;SDS011;36103;54.176;12.070;2023-04-24T02:24:05;3.00;;;2.53;;
50213;SDS011;36103;54.176;12.070;2023-04-24T02:25:07;2.67;;;2.27;;
50213;SDS011;36103;54.176;12.070;2023-04-24T02:26:08;3.37;;;1.93;;
50213;SDS011;36103;54.176;12.070;2023-04-24T02:27:10;2.80;;;2.17;;
50213;SDS011;36103;54.176;12.070;2023-04-24T02:28:11;2.90;;;2.20;;
50213;SDS011;36103;54.176;12.070;2023-04-24T02:29:13;2.67;;;1.90;;
50213;SDS011;36103;54.176;12.070;2023-04-24T02:30:15;2.47;;;1.97;;
50213;SDS011;36103;54.176;12.070;2023-04-24T02:31:16;2.30;;;2.07;;
50213;SDS011;36103;54.176;12.070;2023-04-24T02:32:17;2.90;;;2.07;;
50213;SDS011;36103;54.176;12.070;2023-04-24T02:33:18;2.37;;;1.93;;
50213;SDS011;36103;54.176;12.070;2023-04-24T02:34:19;3.20;;;2.77;;
50213;SDS011;36103;54.176;12.070;2023-04-24T02:35:20;2.80;;;2.00;;
50213;SDS011;36103;54.176;12.070;2023-04-24T02:36:21;3.07;;;2.17;;
50213;SDS011;36103;54.176;12.070;2023-04-24T02:37:22;2.67;;;1.93;;
50213;SDS011;36103;54.176;12.070;2023-04-24T02:38:23;2.73;;;2.20;;
50213;SDS011;36103;54.176;12.070;2023-04-24T02:39:26;2.93;;;1.97;;
50213;SDS011;36103;54.176;12.070;2023-04-24T02:40:28;3.73;;;2.13;;
50213;SDS011;36103;54.176;12.070;2023-04-24T02:41:29;3.57;;;2.50;;
50213;SDS011;36103;54.176;12.070;2023-04-24T02:42:32;2.73;;;2.17;;
50213;SDS011;36103;54.176;12.070;2023-04-24T02:43:33;2.30;;;1.83;;
50213;SDS011;36103;54.176;12.070;2023-04-24T02:44:33;2.87;;;2.10;;
50213;SDS011;36103;54.176;12.070;2023-04-24T02:45:35;2.67;;;2.00;;
50213;SDS011;36103;54.176;12.070;2023-04-24T02:46:35;2.17;;;1.97;;
50213;SDS011;36103;54.176;12.070;2023-04-24T02:47:37;3.47;;;1.90;;
50213;SDS011;36103;54.176;12.070;2023-04-24T02:48:37;3.20;;;2.13;;
50213;SDS011;36103;54.176;12.070;2023-04-24T02:49:39;2.47;;;1.93;;
50213;SDS011;36103;54.176;12.070;2023-04-24T02:50:39;2.13;;;1.83;;
50213;SDS011;36103;54.176;12.070;2023-04-24T02:51:41;2.30;;;2.10;;
50213;SDS011;36103;54.176;12.070;2023-04-24T02:52:42;3.67;;;2.10;;
50213;SDS011;36103;54.176;12.070;2023-04-24T02:53:43;2.67;;;1.97;;
50213;SDS011;36103;54.176;12.070;2023-04-24T02:54:45;2.57;;;2.00;;
50213;SDS011;36103;54.176;12.070;2023-04-24T02:55:46;3.43;;;2.10;;
50213;SDS011;36103;54.176;12.070;2023-04-24T02:56:47;3.10;;;2.30;;
50213;SDS011;36103;54.176;12.070;2023-04-24T02:57:48;3.50;;;2.17;;
50213;SDS011;36103;54.176;12.070;2023-04-24T02:58:49;3.63;;;1.93;;
50213;SDS011;36103;54.176;12.070;2023-04-24T02:59:51;2.17;;;1.97;;
50213;SDS011;36103;54.176;12.070;2023-04-24T03:00:53;2.30;;;2.10;;
50213;SDS011;36103;54.176;12.070;2023-04-24T03:01:54;2.73;;;1.90;;
50213;SDS011;36103;54.176;12.070;2023-04-24T03:02:55;2.80;;;2.03;;
50213;SDS011;36103;54.176;12.070;2023-04-24T03:03:56;3.77;;;2.40;;
50213;SDS011;36103;54.176;12.070;2023-04-24T03:04:57;2.70;;;2.10;;
50213;SDS011;36103;54.176;12.070;2023-04-24T03:05:58;2.50;;;2.10;;
50213;SDS011;36103;54.176;12.070;2023-04-24T03:06:59;1.97;;;1.77;;
50213;SDS011;36103;54.176;12.070;2023-04-24T03:08:01;2.43;;;2.00;;
50213;SDS011;36103;54.176;12.070;2023-04-24T03:09:01;2.87;;;1.97;;
50213;SDS011;36103;54.176;12.070;2023-04-24T03:10:05;1.93;;;1.70;;
50213;SDS011;36103;54.176;12.070;2023-04-24T03:11:07;2.77;;;2.10;;
50213;SDS011;36103;54.176;12.070;2023-04-24T03:12:08;3.13;;;2.03;;
50213;SDS011;36103;54.176;12.070;2023-04-24T03:13:09;2.20;;;2.00;;
50213;SDS011;36103;54.176;12.070;2023-04-24T03:14:10;3.20;;;2.17;;
50213;SDS011;36103;54.176;12.070;2023-04-24T03:15:11;2.50;;;1.93;;
50213;SDS011;36103;54.176;12.070;2023-04-24T03:16:13;3.97;;;2.27;;
50213;SDS011;36103;54.176;12.070;2023-04-24T03:17:13;2.30;;;1.90;;
50213;SDS011;36103;54.176;12.070;2023-04-24T03:18:15;2.47;;;2.00;;
50213;SDS011;36103;54.176;12.070;2023-04-24T03:19:16;2.57;;;2.17;;
50213;SDS011;36103;54.176;12.070;2023-04-24T03:20:28;2.00;;;1.67;;
50213;SDS011;36103;54.176;12.070;2023-04-24T03:21:31;2.57;;;2.00;;
50213;SDS011;36103;54.176;12.070;2023-04-24T03:22:33;2.10;;;1.90;;
50213;SDS011;36103;54.176;12.070;2023-04-24T03:23:35;2.70;;;2.00;;
50213;SDS011;36103;54.176;12.070;2023-04-24T03:24:35;2.40;;;1.70;;
50213;SDS011;36103;54.176;12.070;2023-04-24T03:25:39;2.03;;;1.83;;
50213;SDS011;36103;54.176;12.070;2023-04-24T03:26:41;4.37;;;1.93;;
50213;SDS011;36103;54.176;12.070;2023-04-24T03:28:01;2.00;;;1.73;;
50213;SDS011;36103;54.176;12.070;2023-04-24T03:29:11;3.33;;;1.77;;
50213;SDS011;36103;54.176;12.070;2023-04-24T03:30:12;1.93;;;1.73;;
50213;SDS011;36103;54.176;12.070;2023-04-24T03:31:21;3.10;;;2.27;;
50213;SDS011;36103;54.176;12.070;2023-04-24T03:32:23;1.93;;;1.70;;
50213;SDS011;36103;54.176;12.070;2023-04-24T03:33:24;1.90;;;1.70;;
50213;SDS011;36103;54.176;12.070;2023-04-24T03:34:32;2.23;;;2.00;;
50213;SDS011;36103;54.176;12.070;2023-04-24T03:35:33;2.23;;;2.03;;
50213;SDS011;36103;54.176;12.070;2023-04-24T03:36:37;2.13;;;1.87;;
50213;SDS011;36103;54.176;12.070;2023-04-24T03:37:41;1.90;;;1.70;;
50213;SDS011;36103;54.176;12.070;2023-04-24T03:39:13;2.57;;;2.20;;
50213;SDS011;36103;54.176;12.070;2023-04-24T03:40:21;2.07;;;1.90;;
50213;SDS011;36103;54.176;12.070;2023-04-24T03:41:23;2.30;;;2.00;;
50213;SDS011;36103;54.176;12.070;2023-04-24T03:42:29;2.63;;;1.60;;
50213;SDS011;36103;54.176;12.070;2023-04-24T03:43:30;1.87;;;1.70;;
50213;SDS011;36103;54.176;12.070;2023-04-24T03:44:34;2.10;;;1.90;;
50213;SDS011;36103;54.176;12.070;2023-04-24T03:45:35;2.07;;;1.67;;
50213;SDS011;36103;54.176;12.070;2023-04-24T03:46:36;2.07;;;1.60;;
50213;SDS011;36103;54.176;12.070;2023-04-24T03:47:37;2.13;;;1.80;;
50213;SDS011;36103;54.176;12.070;2023-04-24T03:48:39;1.93;;;1.70;;
50213;SDS011;36103;54.176;12.070;2023-04-24T03:49:42;2.33;;;1.80;;
50213;SDS011;36103;54.176;12.070;2023-04-24T03:50:43;2.10;;;1.83;;
50213;SDS011;36103;54.176;12.070;2023-04-24T03:51:45;1.97;;;1.83;;
50213;SDS011;36103;54.176;12.070;2023-04-24T03:52:59;2.57;;;2.07;;
50213;SDS011;36103;54.176;12.070;2023-04-24T03:54:09;2.00;;;1.70;;
50213;SDS011;36103;54.176;12.070;2023-04-24T03:55:13;2.03;;;1.83;;
50213;SDS011;36103;54.176;12.070;2023-04-24T03:56:17;1.90;;;1.70;;
50213;SDS011;36103;54.176;12.070;2023-04-24T03:57:21;2.40;;;1.90;;
50213;SDS011;36103;54.176;12.070;2023-04-24T03:58:35;1.90;;;1.80;;
50213;SDS011;36103;54.176;12.070;2023-04-24T03:59:36;3.30;;;1.90;;
50213;SDS011;36103;54.176;12.070;2023-04-24T04:00:45;1.80;;;1.70;;
50213;SDS011;36103;54.176;12.070;2023-04-24T04:02:10;2.03;;;1.50;;
50213;SDS011;36103;54.176;12.070;2023-04-24T04:03:12;2.30;;;1.80;;
50213;SDS011;36103;54.176;12.070;2023-04-24T04:04:13;1.97;;;1.60;;
50213;SDS011;36103;54.176;12.070;2023-04-24T04:05:17;2.17;;;1.80;;
50213;SDS011;36103;54.176;12.070;2023-04-24T04:06:18;2.10;;;1.90;;
50213;SDS011;36103;54.176;12.070;2023-04-24T04:07:21;2.13;;;1.77;;
50213;SDS011;36103;54.176;12.070;2023-04-24T04:08:22;2.13;;;1.90;;
50213;SDS011;36103;54.176;12.070;2023-04-24T04:09:23;1.83;;;1.53;;
50213;SDS011;36103;54.176;12.070;2023-04-24T04:10:24;1.77;;;1.60;;
50213;SDS011;36103;54.176;12.070;2023-04-24T04:11:25;1.97;;;1.77;;
50213;SDS011;36103;54.176;12.070;2023-04-24T04:12:27;2.23;;;1.60;;
50213;SDS011;36103;54.176;12.070;2023-04-24T04:13:29;1.60;;;1.50;;
50213;SDS011;36103;54.176;12.070;2023-04-24T04:14:29;2.33;;;2.00;;
50213;SDS011;36103;54.176;12.070;2023-04-24T04:15:31;2.03;;;1.60;;
50213;SDS011;36103;54.176;12.070;2023-04-24T04:16:31;2.00;;;1.63;;
50213;SDS011;36103;54.176;12.070;2023-04-24T04:17:36;3.23;;;1.80;;
50213;SDS011;36103;54.176;12.070;2023-04-24T04:18:40;1.73;;;1.63;;
50213;SDS011;36103;54.176;12.070;2023-04-24T04:19:41;1.80;;;1.70;;
50213;SDS011;36103;54.176;12.070;2023-04-24T04:20:42;3.07;;;1.90;;
50213;SDS011;36103;54.176;12.070;2023-04-24T04:21:46;1.97;;;1.70;;
50213;SDS011;36103;54.176;12.070;2023-04-24T04:22:58;1.93;;;1.60;;
50213;SDS011;36103;54.176;12.070;2023-04-24T04:24:12;1.40;;;1.30;;
50213;SDS011;36103;54.176;12.070;2023-04-24T04:25:18;2.10;;;1.73;;
50213;SDS011;36103;54.176;12.070;2023-04-24T04:26:19;1.80;;;1.70;;
50213;SDS011;36103;54.176;12.070;2023-04-24T04:27:35;2.10;;;1.60;;
50213;SDS011;36103;54.176;12.070;2023-04-24T04:28:41;1.93;;;1.80;;
50213;SDS011;36103;54.176;12.070;2023-04-24T04:29:45;1.73;;;1.60;;
50213;SDS011;36103;54.176;12.070;2023-04-24T04:30:48;1.63;;;1.53;;
50213;SDS011;36103;54.176;12.070;2023-04-24T04:31:50;2.13;;;1.67;;
50213;SDS011;36103;54.176;12.070;2023-04-24T04:32:50;1.50;;;1.40;;
50213;SDS011;36103;54.176;12.070;2023-04-24T04:33:52;1.77;;;1.63;;
50213;SDS011;36103;54.176;12.070;2023-04-24T04:34:53;1.70;;;1.60;;
50213;SDS011;36103;54.176;12.070;2023-04-24T04:35:56;2.87;;;1.77;;
50213;SDS011;36103;54.176;12.070;2023-04-24T04:36:59;2.70;;;1.40;;
50213;SDS011;36103;54.176;12.070;2023-04-24T04:38:14;1.83;;;1.40;;
50213;SDS011;36103;54.176;12.070;2023-04-24T04:39:37;1.97;;;1.70;;
50213;SDS011;36103;54.176;12.070;2023-04-24T04:40:45;1.87;;;1.67;;
50213;SDS011;36103;54.176;12.070;2023-04-24T04:41:48;1.63;;;1.50;;
50213;SDS011;36103;54.176;12.070;2023-04-24T04:42:51;3.03;;;1.60;;
50213;SDS011;36103;54.176;12.070;2023-04-24T04:43:54;1.60;;;1.50;;
50213;SDS011;36103;54.176;12.070;2023-04-24T04:44:55;2.43;;;1.70;;
50213;SDS011;36103;54.176;12.070;2023-04-24T04:46:04;1.53;;;1.43;;
50213;SDS011;36103;54.176;12.070;2023-04-24T04:47:04;1.87;;;1.63;;
50213;SDS011;36103;54.176;12.070;2023-04-24T04:48:09;2.13;;;1.70;;
50213;SDS011;36103;54.176;12.070;2023-04-24T04:49:12;2.00;;;1.77;;
50213;SDS011;36103;54.176;12.070;2023-04-24T04:50:16;1.57;;;1.33;;
50213;SDS011;36103;54.176;12.070;2023-04-24T04:51:20;1.87;;;1.50;;
50213;SDS011;36103;54.176;12.070;2023-04-24T04:52:22;1.73;;;1.50;;
50213;SDS011;36103;54.176;12.070;2023-04-24T04:53:29;1.80;;;1.50;;
50213;SDS011;36103;54.176;12.070;2023-04-24T04:54:30;1.50;;;1.40;;
50213;SDS011;36103;54.176;12.070;2023-04-24T04:55:31;1.80;;;1.60;;
50213;SDS011;36103;54.176;12.070;2023-04-24T04:56:43;1.53;;;1.30;;
50213;SDS011;36103;54.176;12.070;2023-04-24T04:57:44;1.70;;;1.50;;
50213;SDS011;36103;54.176;12.070;2023-04-24T04:58:47;1.60;;;1.50;;
50213;SDS011;36103;54.176;12.070;2023-04-24T04:59:50;1.40;;;1.30;;
50213;SDS011;36103;54.176;12.070;2023-04-24T05:01:03;1.47;;;1.37;;
50213;SDS011;36103;54.176;12.070;2023-04-24T05:02:10;1.47;;;1.37;;
50213;SDS011;36103;54.176;12.070;2023-04-24T05:03:11;1.50;;;1.40;;
50213;SDS011;36103;54.176;12.070;2023-04-24T05:04:13;1.83;;;1.60;;
50213;SDS011;36103;54.176;12.070;2023-04-24T05:05:14;2.03;;;1.80;;
50213;SDS011;36103;54.176;12.070;2023-04-24T05:06:17;1.80;;;1.40;;
50213;SDS011;36103;54.176;12.070;2023-04-24T05:07:19;1.97;;;1.40;;
50213;SDS011;36103;54.176;12.070;2023-04-24T05:08:24;1.50;;;1.20;;
50213;SDS011;36103;54.176;12.070;2023-04-24T05:09:25;1.60;;;1.50;;
50213;SDS011;36103;54.176;12.070;2023-04-24T05:10:30;1.23;;;1.13;;
50213;SDS011;36103;54.176;12.070;2023-04-24T05:11:31;1.43;;;1.33;;
50213;SDS011;36103;54.176;12.070;2023-04-24T05:12:34;2.63;;;1.30;;
50213;SDS011;36103;54.176;12.070;2023-04-24T05:13:36;1.63;;;1.53;;
50213;SDS011;36103;54.176;12.070;2023-04-24T05:14:42;1.60;;;1.50;;
50213;SDS011;36103;54.176;12.070;2023-04-24T05:15:43;1.63;;;1.53;;
50213;SDS011;36103;54.176;12.070;2023-04-24T05:16:44;1.50;;;1.40;;
50213;SDS011;36103;54.176;12.070;2023-04-24T05:17:46;1.70;;;1.60;;
50213;SDS011;36103;54.176;12.070;2023-04-24T05:18:48;1.50;;;1.10;;
50213;SDS011;36103;54.176;12.070;2023-04-24T05:19:52;1.53;;;1.40;;
50213;SDS011;36103;54.176;12.070;2023-04-24T05:20:53;1.43;;;1.33;;
50213;SDS011;36103;54.176;12.070;2023-04-24T05:21:54;1.40;;;1.30;;
50213;SDS011;36103;54.176;12.070;2023-04-24T05:22:56;3.00;;;1.40;;
50213;SDS011;36103;54.176;12.070;2023-04-24T05:23:58;1.53;;;1.33;;
50213;SDS011;36103;54.176;12.070;2023-04-24T05:25:26;1.67;;;1.50;;
50213;SDS011;36103;54.176;12.070;2023-04-24T05:26:32;1.97;;;1.27;;
50213;SDS011;36103;54.176;12.070;2023-04-24T05:27:33;1.83;;;1.37;;
50213;SDS011;36103;54.176;12.070;2023-04-24T05:28:37;1.20;;;1.10;;
50213;SDS011;36103;54.176;12.070;2023-04-24T05:29:43;1.70;;;1.30;;
50213;SDS011;36103;54.176;12.070;2023-04-24T05:30:44;2.00;;;1.40;;
50213;SDS011;36103;54.176;12.070;2023-04-24T05:31:46;2.00;;;1.57;;
50213;SDS011;36103;54.176;12.070;2023-04-24T05:32:48;1.30;;;1.20;;
50213;SDS011;36103;54.176;12.070;2023-04-24T05:33:48;1.27;;;1.17;;
50213;SDS011;36103;54.176;12.070;2023-04-24T05:34:50;1.80;;;1.37;;
50213;SDS011;36103;54.176;12.070;2023-04-24T05:35:50;1.87;;;1.43;;
50213;SDS011;36103;54.176;12.070;2023-04-24T05:36:52;1.10;;;1.00;;
50213;SDS011;36103;54.176;12.070;2023-04-24T05:37:53;1.53;;;1.10;;
50213;SDS011;36103;54.176;12.070;2023-04-24T05:38:55;1.43;;;1.33;;
50213;SDS011;36103;54.176;12.070;2023-04-24T05:39:56;1.33;;;1.00;;
50213;SDS011;36103;54.176;12.070;2023-04-24T05:40:58;1.90;;;1.40;;
50213;SDS011;36103;54.176;12.070;2023-04-24T05:41:59;1.40;;;1.23;;
50213;SDS011;36103;54.176;12.070;2023-04-24T05:43:01;1.73;;;1.40;;
50213;SDS011;36103;54.176;12.070;2023-04-24T05:44:02;2.00;;;1.10;;
50213;SDS011;36103;54.176;12.070;2023-04-24T05:45:05;2.90;;;1.10;;
50213;SDS011;36103;54.176;12.070;2023-04-24T05:46:09;2.50;;;1.50;;
50213;SDS011;36103;54.176;12.070;2023-04-24T05:47:10;1.30;;;1.20;;
50213;SDS011;36103;54.176;12.070;2023-04-24T05:48:10;1.40;;;1.20;;
50213;SDS011;36103;54.176;12.070;2023-04-24T05:49:12;2.10;;;1.53;;
50213;SDS011;36103;54.176;12.070;2023-04-24T05:50:13;1.50;;;1.30;;
50213;SDS011;36103;54.176;12.070;2023-04-24T05:51:15;2.00;;;1.70;;
50213;SDS011;36103;54.176;12.070;2023-04-24T05:52:16;1.50;;;1.37;;
50213;SDS011;36103;54.176;12.070;2023-04-24T05:53:17;1.47;;;1.30;;
50213;SDS011;36103;54.176;12.070;2023-04-24T05:54:18;1.63;;;1.17;;
50213;SDS011;36103;54.176;12.070;2023-04-24T05:55:19;1.33;;;1.23;;
50213;SDS011;36103;54.176;12.070;2023-04-24T05:56:20;1.93;;;1.00;;
50213;SDS011;36103;54.176;12.070;2023-04-24T05:57:24;2.20;;;1.30;;
50213;SDS011;36103;54.176;12.070;2023-04-24T05:58:32;1.60;;;1.37;;
50213;SDS011;36103;54.176;12.070;2023-04-24T05:59:35;1.50;;;1.20;;
50213;SDS011;36103;54.176;12.070;2023-04-24T06:00:38;1.93;;;1.33;;
50213;SDS011;36103;54.176;12.070;2023-04-24T06:01:42;1.40;;;1.30;;
50213;SDS011;36103;54.176;12.070;2023-04-24T06:02:49;1.97;;;1.40;;
50213;SDS011;36103;54.176;12.070;2023-04-24T06:03:51;1.37;;;1.27;;
50213;SDS011;36103;54.176;12.070;2023-04-24T06:04:52;1.50;;;1.40;;
50213;SDS011;36103;54.176;12.070;2023-04-24T06:05:55;1.70;;;1.60;;
50213;SDS011;36103;54.176;12.070;2023-04-24T06:06:56;2.20;;;1.37;;
50213;SDS011;36103;54.176;12.070;2023-04-24T06:07:58;2.07;;;1.40;;
50213;SDS011;36103;54.176;12.070;2023-04-24T06:09:04;1.53;;;1.23;;
50213;SDS011;36103;54.176;12.070;2023-04-24T06:10:05;1.40;;;1.30;;
50213;SDS011;36103;54.176;12.070;2023-04-24T06:11:13;2.07;;;1.40;;
50213;SDS011;36103;54.176;12.070;2023-04-24T06:12:15;1.40;;;1.30;;